KBIE/BIE METAR and TAF weather

Enter ICAO airport designator
Station Type Date Time Source
KBIE METAR 2020/11/27 01:55 UTC NOAA

KBIE 270155Z AUTO 33005KT 10SM CLR M01/M02 A3006 RMK AO2 T10081017


Station Type Date Time Source
KBIE Decoded METAR 2020/11/27 01:55 UTC NOAA

Beatrice Municipal, NE, United States (KBIE) 40-18N 096-45W
Nov 26, 2020 - 08:55 PM EST / 2020.11.27 0155 UTC
Wind: from the NNW (330 degrees) at 6 MPH (5 KT):0
Visibility: 10 mile(s):0
Sky conditions: clear
Temperature: 30.6 F (-0.8 C)
Windchill: 24 F (-4 C):1
Dew Point: 28.9 F (-1.7 C)
Relative Humidity: 93%
Pressure (altimeter): 30.06 in. Hg (1017 hPa)
ob: KBIE 270155Z AUTO 33005KT 10SM CLR M01/M02 A3006 RMK AO2 T10081017
cycle: 2

Station Type Date Time Source
KBIE TAF UTC NOAA

Error!

Example: see airport list